sensor_id;sensor_type;location;lat;lon;timestamp;temperature;humidity
7411;DHT22;3747;48.628;9.058;2023-06-19T00:01:58;21.00;80.50
7411;DHT22;3747;48.628;9.058;2023-06-19T00:04:25;20.80;80.60
7411;DHT22;3747;48.628;9.058;2023-06-19T00:06:52;20.70;81.40
7411;DHT22;3747;48.628;9.058;2023-06-19T00:09:20;20.60;81.80
7411;DHT22;3747;48.628;9.058;2023-06-19T00:11:47;20.50;82.70
7411;DHT22;3747;48.628;9.058;2023-06-19T00:14:13;20.40;82.80
7411;DHT22;3747;48.628;9.058;2023-06-19T00:16:40;20.30;83.60
7411;DHT22;3747;48.628;9.058;2023-06-19T00:19:07;20.20;84.10
7411;DHT22;3747;48.628;9.058;2023-06-19T00:21:33;20.00;84.60
7411;DHT22;3747;48.628;9.058;2023-06-19T00:24:00;19.90;85.60
7411;DHT22;3747;48.628;9.058;2023-06-19T00:26:29;19.90;86.00
7411;DHT22;3747;48.628;9.058;2023-06-19T00:28:56;19.90;86.20
7411;DHT22;3747;48.628;9.058;2023-06-19T00:31:22;19.90;86.30
7411;DHT22;3747;48.628;9.058;2023-06-19T00:33:49;19.90;86.40
7411;DHT22;3747;48.628;9.058;2023-06-19T00:36:16;20.10;86.60
7411;DHT22;3747;48.628;9.058;2023-06-19T00:38:45;20.10;86.60
7411;DHT22;3747;48.628;9.058;2023-06-19T00:41:12;20.00;87.40
7411;DHT22;3747;48.628;9.058;2023-06-19T00:43:40;20.10;87.30
7411;DHT22;3747;48.628;9.058;2023-06-19T00:46:06;20.00;87.40
7411;DHT22;3747;48.628;9.058;2023-06-19T00:48:34;20.10;87.50
7411;DHT22;3747;48.628;9.058;2023-06-19T00:51:01;20.10;87.50
7411;DHT22;3747;48.628;9.058;2023-06-19T00:53:28;20.20;87.40
7411;DHT22;3747;48.628;9.058;2023-06-19T00:55:56;20.20;87.90
7411;DHT22;3747;48.628;9.058;2023-06-19T00:58:24;20.20;87.90
7411;DHT22;3747;48.628;9.058;2023-06-19T01:00:52;20.30;88.20
7411;DHT22;3747;48.628;9.058;2023-06-19T01:03:19;20.40;88.00
7411;DHT22;3747;48.628;9.058;2023-06-19T01:05:47;20.50;88.20
7411;DHT22;3747;48.628;9.058;2023-06-19T01:08:33;20.60;87.30
7411;DHT22;3747;48.628;9.058;2023-06-19T01:11:04;20.80;86.50
7411;DHT22;3747;48.628;9.058;2023-06-19T01:13:34;20.90;87.40
7411;DHT22;3747;48.628;9.058;2023-06-19T01:16:04;20.50;90.30
7411;DHT22;3747;48.628;9.058;2023-06-19T01:18:32;20.20;90.70
7411;DHT22;3747;48.628;9.058;2023-06-19T01:21:12;20.30;89.20
7411;DHT22;3747;48.628;9.058;2023-06-19T01:23:40;20.60;86.40
7411;DHT22;3747;48.628;9.058;2023-06-19T01:26:07;20.80;85.90
7411;DHT22;3747;48.628;9.058;2023-06-19T01:28:35;21.00;84.70
7411;DHT22;3747;48.628;9.058;2023-06-19T01:31:03;21.00;84.70
7411;DHT22;3747;48.628;9.058;2023-06-19T01:33:33;21.00;85.20
7411;DHT22;3747;48.628;9.058;2023-06-19T01:36:03;20.90;87.20
7411;DHT22;3747;48.628;9.058;2023-06-19T01:38:31;20.90;86.70
7411;DHT22;3747;48.628;9.058;2023-06-19T01:40:59;20.80;86.90
7411;DHT22;3747;48.628;9.058;2023-06-19T01:43:28;20.80;87.20
7411;DHT22;3747;48.628;9.058;2023-06-19T01:45:56;20.70;88.50
7411;DHT22;3747;48.628;9.058;2023-06-19T01:48:23;20.60;90.00
7411;DHT22;3747;48.628;9.058;2023-06-19T01:50:51;20.50;90.50
7411;DHT22;3747;48.628;9.058;2023-06-19T01:53:18;20.40;90.80
7411;DHT22;3747;48.628;9.058;2023-06-19T01:55:44;20.30;91.10
7411;DHT22;3747;48.628;9.058;2023-06-19T01:58:12;20.20;91.60
7411;DHT22;3747;48.628;9.058;2023-06-19T02:00:39;20.10;91.60
7411;DHT22;3747;48.628;9.058;2023-06-19T02:03:06;20.10;91.90
7411;DHT22;3747;48.628;9.058;2023-06-19T02:05:32;20.10;92.00
7411;DHT22;3747;48.628;9.058;2023-06-19T02:07:59;20.00;92.20
7411;DHT22;3747;48.628;9.058;2023-06-19T02:10:38;20.00;92.20
7411;DHT22;3747;48.628;9.058;2023-06-19T02:13:05;20.00;92.30
7411;DHT22;3747;48.628;9.058;2023-06-19T02:15:33;19.90;92.50
7411;DHT22;3747;48.628;9.058;2023-06-19T02:18:00;19.90;92.70
7411;DHT22;3747;48.628;9.058;2023-06-19T02:20:26;19.80;92.90
7411;DHT22;3747;48.628;9.058;2023-06-19T02:22:53;19.80;92.90
7411;DHT22;3747;48.628;9.058;2023-06-19T02:25:20;19.80;93.10
7411;DHT22;3747;48.628;9.058;2023-06-19T02:27:46;19.80;93.30
7411;DHT22;3747;48.628;9.058;2023-06-19T02:30:13;19.70;93.40
7411;DHT22;3747;48.628;9.058;2023-06-19T02:32:41;19.70;93.70
7411;DHT22;3747;48.628;9.058;2023-06-19T02:35:10;19.70;93.80
7411;DHT22;3747;48.628;9.058;2023-06-19T02:37:37;19.70;94.10
7411;DHT22;3747;48.628;9.058;2023-06-19T02:40:04;19.60;94.40
7411;DHT22;3747;48.628;9.058;2023-06-19T02:42:31;19.60;94.40
7411;DHT22;3747;48.628;9.058;2023-06-19T02:44:58;19.60;94.60
7411;DHT22;3747;48.628;9.058;2023-06-19T02:47:28;19.60;94.50
7411;DHT22;3747;48.628;9.058;2023-06-19T02:49:57;19.60;94.80
7411;DHT22;3747;48.628;9.058;2023-06-19T02:52:24;19.50;95.50
7411;DHT22;3747;48.628;9.058;2023-06-19T02:54:50;19.50;95.40
7411;DHT22;3747;48.628;9.058;2023-06-19T02:57:17;19.50;95.70
7411;DHT22;3747;48.628;9.058;2023-06-19T02:59:44;19.50;95.60
7411;DHT22;3747;48.628;9.058;2023-06-19T03:02:11;19.50;95.70
7411;DHT22;3747;48.628;9.058;2023-06-19T03:04:39;19.50;95.80
7411;DHT22;3747;48.628;9.058;2023-06-19T03:07:07;19.50;96.10
7411;DHT22;3747;48.628;9.058;2023-06-19T03:09:34;19.50;96.10
7411;DHT22;3747;48.628;9.058;2023-06-19T03:12:01;19.40;96.40
7411;DHT22;3747;48.628;9.058;2023-06-19T03:14:27;19.40;96.80
7411;DHT22;3747;48.628;9.058;2023-06-19T03:16:54;19.40;96.80
7411;DHT22;3747;48.628;9.058;2023-06-19T03:19:21;19.50;96.90
7411;DHT22;3747;48.628;9.058;2023-06-19T03:21:47;19.40;97.10
7411;DHT22;3747;48.628;9.058;2023-06-19T03:24:15;19.40;97.50
7411;DHT22;3747;48.628;9.058;2023-06-19T03:26:42;19.40;98.00
7411;DHT22;3747;48.628;9.058;2023-06-19T03:29:09;19.30;97.90
7411;DHT22;3747;48.628;9.058;2023-06-19T03:31:35;19.40;97.90
7411;DHT22;3747;48.628;9.058;2023-06-19T03:34:05;19.40;97.90
7411;DHT22;3747;48.628;9.058;2023-06-19T03:36:31;19.40;98.00
7411;DHT22;3747;48.628;9.058;2023-06-19T03:38:58;19.40;98.10
7411;DHT22;3747;48.628;9.058;2023-06-19T03:41:26;19.30;98.20
7411;DHT22;3747;48.628;9.058;2023-06-19T03:43:52;19.40;98.30
7411;DHT22;3747;48.628;9.058;2023-06-19T03:46:19;19.40;98.70
7411;DHT22;3747;48.628;9.058;2023-06-19T03:48:46;19.30;99.20
7411;DHT22;3747;48.628;9.058;2023-06-19T03:51:13;19.20;99.40
7411;DHT22;3747;48.628;9.058;2023-06-19T03:53:39;19.10;99.30
7411;DHT22;3747;48.628;9.058;2023-06-19T03:56:07;19.20;99.50
7411;DHT22;3747;48.628;9.058;2023-06-19T03:58:35;19.20;99.60
7411;DHT22;3747;48.628;9.058;2023-06-19T04:01:02;19.20;99.80
7411;DHT22;3747;48.628;9.058;2023-06-19T04:03:29;19.20;99.30
7411;DHT22;3747;48.628;9.058;2023-06-19T04:05:55;19.20;99.60
7411;DHT22;3747;48.628;9.058;2023-06-19T04:08:22;19.20;99.90
7411;DHT22;3747;48.628;9.058;2023-06-19T04:10:50;19.20;99.90
7411;DHT22;3747;48.628;9.058;2023-06-19T04:13:17;19.10;99.90
7411;DHT22;3747;48.628;9.058;2023-06-19T04:15:45;19.10;99.90
7411;DHT22;3747;48.628;9.058;2023-06-19T04:18:11;19.10;99.90
7411;DHT22;3747;48.628;9.058;2023-06-19T04:20:38;19.10;99.90
7411;DHT22;3747;48.628;9.058;2023-06-19T04:23:05;19.10;99.90
7411;DHT22;3747;48.628;9.058;2023-06-19T04:25:32;19.00;99.90
7411;DHT22;3747;48.628;9.058;2023-06-19T04:27:59;19.00;99.90
7411;DHT22;3747;48.628;9.058;2023-06-19T04:30:25;18.80;99.90
7411;DHT22;3747;48.628;9.058;2023-06-19T04:32:53;18.70;99.90
7411;DHT22;3747;48.628;9.058;2023-06-19T04:35:20;18.60;99.90
7411;DHT22;3747;48.628;9.058;2023-06-19T04:37:49;18.80;99.90
7411;DHT22;3747;48.628;9.058;2023-06-19T04:40:16;18.80;99.90
7411;DHT22;3747;48.628;9.058;2023-06-19T04:42:42;18.70;99.90
7411;DHT22;3747;48.628;9.058;2023-06-19T04:45:10;18.70;99.90
7411;DHT22;3747;48.628;9.058;2023-06-19T04:47:37;18.70;99.90
7411;DHT22;3747;48.628;9.058;2023-06-19T04:50:07;18.70;99.90
7411;DHT22;3747;48.628;9.058;2023-06-19T04:52:34;18.70;99.90
7411;DHT22;3747;48.628;9.058;2023-06-19T04:55:00;18.80;99.90
7411;DHT22;3747;48.628;9.058;2023-06-19T04:57:27;18.90;99.90
7411;DHT22;3747;48.628;9.058;2023-06-19T04:59:54;18.90;99.90
7411;DHT22;3747;48.628;9.058;2023-06-19T05:02:20;19.10;99.90
7411;DHT22;3747;48.628;9.058;2023-06-19T05:04:49;19.10;99.90
7411;DHT22;3747;48.628;9.058;2023-06-19T05:07:17;19.20;99.90
7411;DHT22;3747;48.628;9.058;2023-06-19T05:09:44;19.40;99.90
7411;DHT22;3747;48.628;9.058;2023-06-19T05:12:11;19.50;99.90
7411;DHT22;3747;48.628;9.058;2023-06-19T05:14:38;19.60;99.90
7411;DHT22;3747;48.628;9.058;2023-06-19T05:17:05;19.80;99.90
7411;DHT22;3747;48.628;9.058;2023-06-19T05:19:32;19.90;99.90
7411;DHT22;3747;48.628;9.058;2023-06-19T05:21:58;19.80;99.90
7411;DHT22;3747;48.628;9.058;2023-06-19T05:24:26;19.90;99.90
7411;DHT22;3747;48.628;9.058;2023-06-19T05:26:53;20.20;99.90
7411;DHT22;3747;48.628;9.058;2023-06-19T05:29:20;20.30;99.90
7411;DHT22;3747;48.628;9.058;2023-06-19T05:31:46;20.40;99.90
7411;DHT22;3747;48.628;9.058;2023-06-19T05:34:13;20.50;99.90
7411;DHT22;3747;48.628;9.058;2023-06-19T05:36:40;20.60;99.90
7411;DHT22;3747;48.628;9.058;2023-06-19T05:39:07;20.60;99.90
7411;DHT22;3747;48.628;9.058;2023-06-19T05:41:36;20.60;99.90
7411;DHT22;3747;48.628;9.058;2023-06-19T05:44:03;20.60;99.90
7411;DHT22;3747;48.628;9.058;2023-06-19T05:46:30;20.70;99.90
7411;DHT22;3747;48.628;9.058;2023-06-19T05:48:56;20.70;99.90
7411;DHT22;3747;48.628;9.058;2023-06-19T05:51:23;20.70;99.90
7411;DHT22;3747;48.628;9.058;2023-06-19T05:53:50;20.80;99.90
7411;DHT22;3747;48.628;9.058;2023-06-19T05:56:17;20.80;99.90
7411;DHT22;3747;48.628;9.058;2023-06-19T05:58:45;20.80;99.90
7411;DHT22;3747;48.628;9.058;2023-06-19T06:01:12;20.80;99.90
7411;DHT22;3747;48.628;9.058;2023-06-19T06:03:39;20.80;99.90
7411;DHT22;3747;48.628;9.058;2023-06-19T06:06:06;20.90;99.90
7411;DHT22;3747;48.628;9.058;2023-06-19T06:08:32;21.00;99.90
7411;DHT22;3747;48.628;9.058;2023-06-19T06:11:00;21.10;99.90
7411;DHT22;3747;48.628;9.058;2023-06-19T06:13:26;21.10;99.90
7411;DHT22;3747;48.628;9.058;2023-06-19T06:15:54;21.30;99.90
7411;DHT22;3747;48.628;9.058;2023-06-19T06:18:21;21.50;99.90
7411;DHT22;3747;48.628;9.058;2023-06-19T06:20:48;21.60;99.90
7411;DHT22;3747;48.628;9.058;2023-06-19T06:23:15;21.70;99.90
7411;DHT22;3747;48.628;9.058;2023-06-19T06:25:41;21.90;99.90
7411;DHT22;3747;48.628;9.058;2023-06-19T06:28:08;22.20;99.90
7411;DHT22;3747;48.628;9.058;2023-06-19T06:30:35;22.50;99.90
7411;DHT22;3747;48.628;9.058;2023-06-19T06:33:03;22.30;99.90
7411;DHT22;3747;48.628;9.058;2023-06-19T06:35:29;22.60;99.90
7411;DHT22;3747;48.628;9.058;2023-06-19T06:37:56;22.70;99.90
7411;DHT22;3747;48.628;9.058;2023-06-19T06:40:23;23.10;99.90
7411;DHT22;3747;48.628;9.058;2023-06-19T06:42:49;23.00;99.90
7411;DHT22;3747;48.628;9.058;2023-06-19T06:45:16;23.10;99.90
7411;DHT22;3747;48.628;9.058;2023-06-19T06:47:43;23.40;99.90
7411;DHT22;3747;48.628;9.058;2023-06-19T06:50:11;23.50;99.90
7411;DHT22;3747;48.628;9.058;2023-06-19T06:52:37;23.70;99.90
7411;DHT22;3747;48.628;9.058;2023-06-19T06:55:05;24.00;99.90
7411;DHT22;3747;48.628;9.058;2023-06-19T06:57:31;23.80;99.90
7411;DHT22;3747;48.628;9.058;2023-06-19T06:59:58;23.80;99.90
7411;DHT22;3747;48.628;9.058;2023-06-19T07:02:25;23.70;99.90
7411;DHT22;3747;48.628;9.058;2023-06-19T07:04:51;24.00;99.90
7411;DHT22;3747;48.628;9.058;2023-06-19T07:07:20;24.30;99.90
7411;DHT22;3747;48.628;9.058;2023-06-19T07:09:47;24.20;99.90
7411;DHT22;3747;48.628;9.058;2023-06-19T07:12:13;24.40;99.90
7411;DHT22;3747;48.628;9.058;2023-06-19T07:14:40;25.30;99.50
7411;DHT22;3747;48.628;9.058;2023-06-19T07:17:07;25.50;97.20
7411;DHT22;3747;48.628;9.058;2023-06-19T07:19:34;24.80;97.90
7411;DHT22;3747;48.628;9.058;2023-06-19T07:22:00;24.00;98.70
7411;DHT22;3747;48.628;9.058;2023-06-19T07:24:29;23.60;99.30
7411;DHT22;3747;48.628;9.058;2023-06-19T07:26:55;23.50;99.90
7411;DHT22;3747;48.628;9.058;2023-06-19T07:29:22;23.50;99.90
7411;DHT22;3747;48.628;9.058;2023-06-19T07:31:51;24.10;99.90
7411;DHT22;3747;48.628;9.058;2023-06-19T07:34:18;24.80;99.70
7411;DHT22;3747;48.628;9.058;2023-06-19T07:36:45;25.40;97.70
7411;DHT22;3747;48.628;9.058;2023-06-19T07:39:12;25.90;96.80
7411;DHT22;3747;48.628;9.058;2023-06-19T07:41:40;25.50;96.30
7411;DHT22;3747;48.628;9.058;2023-06-19T07:44:07;25.00;97.70
7411;DHT22;3747;48.628;9.058;2023-06-19T07:46:33;24.70;97.60
7411;DHT22;3747;48.628;9.058;2023-06-19T07:49:00;24.70;98.00
7411;DHT22;3747;48.628;9.058;2023-06-19T07:51:27;24.70;97.80
7411;DHT22;3747;48.628;9.058;2023-06-19T07:53:53;24.70;97.80
7411;DHT22;3747;48.628;9.058;2023-06-19T07:56:20;24.90;97.40
7411;DHT22;3747;48.628;9.058;2023-06-19T07:58:48;24.90;96.30
7411;DHT22;3747;48.628;9.058;2023-06-19T08:01:25;24.80;96.10
7411;DHT22;3747;48.628;9.058;2023-06-19T08:03:54;25.00;95.30
7411;DHT22;3747;48.628;9.058;2023-06-19T08:06:40;24.80;95.60
7411;DHT22;3747;48.628;9.058;2023-06-19T08:09:06;24.90;96.20
7411;DHT22;3747;48.628;9.058;2023-06-19T08:11:33;25.30;96.30
7411;DHT22;3747;48.628;9.058;2023-06-19T08:14:02;25.60;96.40
7411;DHT22;3747;48.628;9.058;2023-06-19T08:16:28;25.70;94.80
7411;DHT22;3747;48.628;9.058;2023-06-19T08:18:55;25.30;95.00
7411;DHT22;3747;48.628;9.058;2023-06-19T08:21:22;25.40;94.90
7411;DHT22;3747;48.628;9.058;2023-06-19T08:23:48;25.70;96.20
7411;DHT22;3747;48.628;9.058;2023-06-19T08:26:15;26.30;95.70
7411;DHT22;3747;48.628;9.058;2023-06-19T08:28:48;26.90;93.80
7411;DHT22;3747;48.628;9.058;2023-06-19T08:31:30;27.10;94.30
7411;DHT22;3747;48.628;9.058;2023-06-19T08:33:57;27.70;94.70
7411;DHT22;3747;48.628;9.058;2023-06-19T08:36:24;28.40;92.10
7411;DHT22;3747;48.628;9.058;2023-06-19T08:39:24;28.80;90.30
7411;DHT22;3747;48.628;9.058;2023-06-19T08:41:59;29.20;88.40
7411;DHT22;3747;48.628;9.058;2023-06-19T08:44:39;29.70;86.20
7411;DHT22;3747;48.628;9.058;2023-06-19T08:47:15;30.40;85.80
7411;DHT22;3747;48.628;9.058;2023-06-19T08:49:42;30.70;83.80
7411;DHT22;3747;48.628;9.058;2023-06-19T08:52:10;31.10;81.70
7411;DHT22;3747;48.628;9.058;2023-06-19T08:54:36;30.90;82.60
7411;DHT22;3747;48.628;9.058;2023-06-19T08:57:16;30.50;83.00
7411;DHT22;3747;48.628;9.058;2023-06-19T08:59:48;30.60;79.70
7411;DHT22;3747;48.628;9.058;2023-06-19T09:02:18;31.00;80.20
7411;DHT22;3747;48.628;9.058;2023-06-19T09:05:12;30.60;80.70
7411;DHT22;3747;48.628;9.058;2023-06-19T09:07:39;30.10;79.50
7411;DHT22;3747;48.628;9.058;2023-06-19T09:10:17;29.00;83.50
7411;DHT22;3747;48.628;9.058;2023-06-19T09:12:44;28.00;84.70
7411;DHT22;3747;48.628;9.058;2023-06-19T09:15:21;27.40;84.10
7411;DHT22;3747;48.628;9.058;2023-06-19T09:18:00;27.00;86.10
7411;DHT22;3747;48.628;9.058;2023-06-19T09:20:30;26.60;86.50
7411;DHT22;3747;48.628;9.058;2023-06-19T09:22:56;26.50;88.70
7411;DHT22;3747;48.628;9.058;2023-06-19T09:25:23;26.40;89.20
7411;DHT22;3747;48.628;9.058;2023-06-19T09:27:52;26.50;89.20
7411;DHT22;3747;48.628;9.058;2023-06-19T09:30:19;26.80;89.90
7411;DHT22;3747;48.628;9.058;2023-06-19T09:32:45;27.00;89.40
7411;DHT22;3747;48.628;9.058;2023-06-19T09:35:13;27.00;89.60
7411;DHT22;3747;48.628;9.058;2023-06-19T09:37:55;26.90;90.20
7411;DHT22;3747;48.628;9.058;2023-06-19T09:40:25;27.00;88.00
7411;DHT22;3747;48.628;9.058;2023-06-19T09:42:54;27.90;87.20
7411;DHT22;3747;48.628;9.058;2023-06-19T09:45:23;29.10;84.40
7411;DHT22;3747;48.628;9.058;2023-06-19T09:47:52;29.50;81.60
7411;DHT22;3747;48.628;9.058;2023-06-19T09:50:22;30.00;81.00
7411;DHT22;3747;48.628;9.058;2023-06-19T09:52:54;30.40;80.20
7411;DHT22;3747;48.628;9.058;2023-06-19T09:55:39;31.70;77.80
7411;DHT22;3747;48.628;9.058;2023-06-19T09:58:07;32.80;74.00
7411;DHT22;3747;48.628;9.058;2023-06-19T10:00:33;32.90;72.70
7411;DHT22;3747;48.628;9.058;2023-06-19T10:03:00;32.50;74.90
7411;DHT22;3747;48.628;9.058;2023-06-19T10:05:30;33.10;71.60
7411;DHT22;3747;48.628;9.058;2023-06-19T10:07:57;33.70;70.10
7411;DHT22;3747;48.628;9.058;2023-06-19T10:10:26;33.40;70.30
7411;DHT22;3747;48.628;9.058;2023-06-19T10:12:55;33.80;69.80
7411;DHT22;3747;48.628;9.058;2023-06-19T10:15:23;33.50;68.80
7411;DHT22;3747;48.628;9.058;2023-06-19T10:17:52;33.40;70.10
7411;DHT22;3747;48.628;9.058;2023-06-19T10:20:27;32.80;71.30
7411;DHT22;3747;48.628;9.058;2023-06-19T10:23:02;32.50;70.10
7411;DHT22;3747;48.628;9.058;2023-06-19T10:25:30;32.40;70.70
7411;DHT22;3747;48.628;9.058;2023-06-19T10:27:58;32.50;69.50
7411;DHT22;3747;48.628;9.058;2023-06-19T10:30:32;31.80;71.40
7411;DHT22;3747;48.628;9.058;2023-06-19T10:33:00;31.10;69.60
7411;DHT22;3747;48.628;9.058;2023-06-19T10:35:37;31.20;71.30
7411;DHT22;3747;48.628;9.058;2023-06-19T10:38:06;31.10;72.90
7411;DHT22;3747;48.628;9.058;2023-06-19T10:40:35;31.10;75.90
7411;DHT22;3747;48.628;9.058;2023-06-19T10:43:02;31.60;72.60
7411;DHT22;3747;48.628;9.058;2023-06-19T10:45:29;32.10;70.90
7411;DHT22;3747;48.628;9.058;2023-06-19T10:48:00;33.00;68.20
7411;DHT22;3747;48.628;9.058;2023-06-19T10:50:27;33.00;69.70
7411;DHT22;3747;48.628;9.058;2023-06-19T10:52:54;33.60;63.80
7411;DHT22;3747;48.628;9.058;2023-06-19T10:55:22;33.30;66.10
7411;DHT22;3747;48.628;9.058;2023-06-19T10:57:50;31.60;65.80
7411;DHT22;3747;48.628;9.058;2023-06-19T11:00:24;30.20;72.00
7411;DHT22;3747;48.628;9.058;2023-06-19T11:02:51;31.80;69.00
7411;DHT22;3747;48.628;9.058;2023-06-19T11:05:20;31.40;68.30
7411;DHT22;3747;48.628;9.058;2023-06-19T11:07:51;30.90;69.20
7411;DHT22;3747;48.628;9.058;2023-06-19T11:10:23;31.00;69.10
7411;DHT22;3747;48.628;9.058;2023-06-19T11:12:53;31.40;69.10
7411;DHT22;3747;48.628;9.058;2023-06-19T11:15:27;31.60;67.90
7411;DHT22;3747;48.628;9.058;2023-06-19T11:17:54;31.70;67.10
7411;DHT22;3747;48.628;9.058;2023-06-19T11:20:20;31.40;67.10
7411;DHT22;3747;48.628;9.058;2023-06-19T11:22:47;30.80;68.80
7411;DHT22;3747;48.628;9.058;2023-06-19T11:25:14;30.90;68.40
7411;DHT22;3747;48.628;9.058;2023-06-19T11:27:42;31.70;68.90
7411;DHT22;3747;48.628;9.058;2023-06-19T11:30:12;32.90;69.30
7411;DHT22;3747;48.628;9.058;2023-06-19T11:32:40;33.30;65.60
7411;DHT22;3747;48.628;9.058;2023-06-19T11:35:20;33.00;64.20
7411;DHT22;3747;48.628;9.058;2023-06-19T11:37:47;32.40;66.40
7411;DHT22;3747;48.628;9.058;2023-06-19T11:40:14;31.90;67.40
7411;DHT22;3747;48.628;9.058;2023-06-19T11:42:48;30.70;68.60
7411;DHT22;3747;48.628;9.058;2023-06-19T11:45:15;30.40;69.30
7411;DHT22;3747;48.628;9.058;2023-06-19T11:47:43;30.30;68.40
7411;DHT22;3747;48.628;9.058;2023-06-19T11:50:11;29.70;70.20
7411;DHT22;3747;48.628;9.058;2023-06-19T11:52:38;29.50;74.70
7411;DHT22;3747;48.628;9.058;2023-06-19T11:55:06;30.30;74.90
7411;DHT22;3747;48.628;9.058;2023-06-19T11:57:32;31.50;73.30
7411;DHT22;3747;48.628;9.058;2023-06-19T12:00:01;32.00;72.00
7411;DHT22;3747;48.628;9.058;2023-06-19T12:02:32;32.40;72.50
7411;DHT22;3747;48.628;9.058;2023-06-19T12:04:59;32.10;71.60
7411;DHT22;3747;48.628;9.058;2023-06-19T12:07:26;31.90;72.30
7411;DHT22;3747;48.628;9.058;2023-06-19T12:09:52;31.30;72.70
7411;DHT22;3747;48.628;9.058;2023-06-19T12:12:19;31.40;74.20
7411;DHT22;3747;48.628;9.058;2023-06-19T12:14:46;31.30;75.20
7411;DHT22;3747;48.628;9.058;2023-06-19T12:17:14;32.60;70.60
7411;DHT22;3747;48.628;9.058;2023-06-19T12:19:40;34.30;66.80
7411;DHT22;3747;48.628;9.058;2023-06-19T12:22:07;35.10;66.40
7411;DHT22;3747;48.628;9.058;2023-06-19T12:24:33;35.50;66.50
7411;DHT22;3747;48.628;9.058;2023-06-19T12:27:00;35.90;64.50
7411;DHT22;3747;48.628;9.058;2023-06-19T12:29:47;35.00;66.60
7411;DHT22;3747;48.628;9.058;2023-06-19T12:32:15;34.20;66.10
7411;DHT22;3747;48.628;9.058;2023-06-19T12:34:47;35.00;62.90
7411;DHT22;3747;48.628;9.058;2023-06-19T12:37:14;36.00;61.10
7411;DHT22;3747;48.628;9.058;2023-06-19T12:39:43;36.90;62.50
7411;DHT22;3747;48.628;9.058;2023-06-19T12:42:10;37.00;59.10
7411;DHT22;3747;48.628;9.058;2023-06-19T12:44:38;35.70;60.80
7411;DHT22;3747;48.628;9.058;2023-06-19T12:47:06;35.70;59.40
7411;DHT22;3747;48.628;9.058;2023-06-19T12:49:34;35.00;60.70
7411;DHT22;3747;48.628;9.058;2023-06-19T12:52:01;34.00;62.60
7411;DHT22;3747;48.628;9.058;2023-06-19T12:54:28;33.60;65.80
7411;DHT22;3747;48.628;9.058;2023-06-19T12:56:54;34.60;61.70
7411;DHT22;3747;48.628;9.058;2023-06-19T12:59:21;34.70;61.90
7411;DHT22;3747;48.628;9.058;2023-06-19T13:02:03;35.50;59.40
7411;DHT22;3747;48.628;9.058;2023-06-19T13:04:30;36.00;59.40
7411;DHT22;3747;48.628;9.058;2023-06-19T13:06:58;36.60;57.90
7411;DHT22;3747;48.628;9.058;2023-06-19T13:09:25;36.10;59.80
7411;DHT22;3747;48.628;9.058;2023-06-19T13:11:51;35.10;62.80
7411;DHT22;3747;48.628;9.058;2023-06-19T13:14:18;35.40;59.40
7411;DHT22;3747;48.628;9.058;2023-06-19T13:16:45;35.70;58.40
7411;DHT22;3747;48.628;9.058;2023-06-19T13:19:11;36.00;57.90
7411;DHT22;3747;48.628;9.058;2023-06-19T13:21:38;35.10;58.50
7411;DHT22;3747;48.628;9.058;2023-06-19T13:24:07;34.70;59.30
7411;DHT22;3747;48.628;9.058;2023-06-19T13:26:34;35.00;59.40
7411;DHT22;3747;48.628;9.058;2023-06-19T13:29:00;34.40;59.10
7411;DHT22;3747;48.628;9.058;2023-06-19T13:31:27;34.00;60.10
7411;DHT22;3747;48.628;9.058;2023-06-19T13:33:53;34.10;57.20
7411;DHT22;3747;48.628;9.058;2023-06-19T13:36:20;34.80;57.70
7411;DHT22;3747;48.628;9.058;2023-06-19T13:38:49;34.50;58.90
7411;DHT22;3747;48.628;9.058;2023-06-19T13:41:17;35.10;58.20
7411;DHT22;3747;48.628;9.058;2023-06-19T13:43:44;35.40;58.40
7411;DHT22;3747;48.628;9.058;2023-06-19T13:46:11;35.30;56.10
7411;DHT22;3747;48.628;9.058;2023-06-19T13:48:38;35.70;56.20
7411;DHT22;3747;48.628;9.058;2023-06-19T13:51:05;35.30;55.90
7411;DHT22;3747;48.628;9.058;2023-06-19T13:53:31;34.70;56.70
7411;DHT22;3747;48.628;9.058;2023-06-19T13:55:58;34.50;56.60
7411;DHT22;3747;48.628;9.058;2023-06-19T13:58:26;34.50;56.60
7411;DHT22;3747;48.628;9.058;2023-06-19T14:00:53;34.50;56.90
7411;DHT22;3747;48.628;9.058;2023-06-19T14:03:19;34.30;59.50
7411;DHT22;3747;48.628;9.058;2023-06-19T14:05:46;35.20;55.60
7411;DHT22;3747;48.628;9.058;2023-06-19T14:08:13;35.70;55.70
7411;DHT22;3747;48.628;9.058;2023-06-19T14:10:39;35.80;55.10
7411;DHT22;3747;48.628;9.058;2023-06-19T14:13:06;35.80;55.60
7411;DHT22;3747;48.628;9.058;2023-06-19T14:15:43;35.90;55.60
7411;DHT22;3747;48.628;9.058;2023-06-19T14:18:10;34.40;56.50
7411;DHT22;3747;48.628;9.058;2023-06-19T14:20:36;33.40;57.90
7411;DHT22;3747;48.628;9.058;2023-06-19T14:23:03;33.40;58.80
7411;DHT22;3747;48.628;9.058;2023-06-19T14:25:30;34.20;56.40
7411;DHT22;3747;48.628;9.058;2023-06-19T14:27:57;34.10;57.20
7411;DHT22;3747;48.628;9.058;2023-06-19T14:30:23;33.80;56.10
7411;DHT22;3747;48.628;9.058;2023-06-19T14:32:51;32.80;58.20
7411;DHT22;3747;48.628;9.058;2023-06-19T14:35:18;32.00;61.30
7411;DHT22;3747;48.628;9.058;2023-06-19T14:37:45;32.20;62.10
7411;DHT22;3747;48.628;9.058;2023-06-19T14:40:11;32.50;60.30
7411;DHT22;3747;48.628;9.058;2023-06-19T14:42:38;32.60;58.60
7411;DHT22;3747;48.628;9.058;2023-06-19T14:45:06;33.10;59.90
7411;DHT22;3747;48.628;9.058;2023-06-19T14:47:33;32.70;58.50
7411;DHT22;3747;48.628;9.058;2023-06-19T14:50:01;33.00;59.40
7411;DHT22;3747;48.628;9.058;2023-06-19T14:52:28;34.10;56.60
7411;DHT22;3747;48.628;9.058;2023-06-19T14:54:56;34.20;56.70
7411;DHT22;3747;48.628;9.058;2023-06-19T14:57:24;34.80;56.80
7411;DHT22;3747;48.628;9.058;2023-06-19T14:59:51;35.30;55.80
7411;DHT22;3747;48.628;9.058;2023-06-19T15:02:18;35.50;53.10
7411;DHT22;3747;48.628;9.058;2023-06-19T15:04:44;35.50;53.10
7411;DHT22;3747;48.628;9.058;2023-06-19T15:07:12;35.60;53.20
7411;DHT22;3747;48.628;9.058;2023-06-19T15:09:39;36.50;53.50
7411;DHT22;3747;48.628;9.058;2023-06-19T15:12:06;36.80;53.90
7411;DHT22;3747;48.628;9.058;2023-06-19T15:14:33;36.40;52.90
7411;DHT22;3747;48.628;9.058;2023-06-19T15:17:03;36.50;52.40
7411;DHT22;3747;48.628;9.058;2023-06-19T15:19:38;36.30;52.80
7411;DHT22;3747;48.628;9.058;2023-06-19T15:22:05;36.10;51.50
7411;DHT22;3747;48.628;9.058;2023-06-19T15:24:33;37.10;50.20
7411;DHT22;3747;48.628;9.058;2023-06-19T15:27:18;37.90;48.80
7411;DHT22;3747;48.628;9.058;2023-06-19T15:29:47;38.10;49.20
7411;DHT22;3747;48.628;9.058;2023-06-19T15:32:13;36.50;50.90
7411;DHT22;3747;48.628;9.058;2023-06-19T15:34:40;37.10;49.70
7411;DHT22;3747;48.628;9.058;2023-06-19T15:37:07;36.90;48.80
7411;DHT22;3747;48.628;9.058;2023-06-19T15:39:35;35.70;50.00
7411;DHT22;3747;48.628;9.058;2023-06-19T15:42:01;33.40;52.70
7411;DHT22;3747;48.628;9.058;2023-06-19T15:44:28;32.70;56.20
7411;DHT22;3747;48.628;9.058;2023-06-19T15:47:03;33.90;54.60
7411;DHT22;3747;48.628;9.058;2023-06-19T15:49:29;35.10;54.10
7411;DHT22;3747;48.628;9.058;2023-06-19T15:51:56;33.90;53.00
7411;DHT22;3747;48.628;9.058;2023-06-19T15:54:23;33.10;54.80
7411;DHT22;3747;48.628;9.058;2023-06-19T15:56:51;32.80;54.70
7411;DHT22;3747;48.628;9.058;2023-06-19T15:59:17;31.80;55.60
7411;DHT22;3747;48.628;9.058;2023-06-19T16:01:44;31.40;57.20
7411;DHT22;3747;48.628;9.058;2023-06-19T16:04:11;30.70;57.20
7411;DHT22;3747;48.628;9.058;2023-06-19T16:06:38;30.10;58.30
7411;DHT22;3747;48.628;9.058;2023-06-19T16:09:06;29.60;59.40